sensor_id;sensor_type;location;lat;lon;timestamp;P1;durP1;ratioP1;P2;durP2;ratioP2
28760;SDS011;15917;50.014;8.352;2023-06-05T00:01:18;8.38;;;1.52;;
28760;SDS011;15917;50.014;8.352;2023-06-05T00:03:44;2.67;;;1.00;;
28760;SDS011;15917;50.014;8.352;2023-06-05T00:06:09;2.78;;;1.25;;
28760;SDS011;15917;50.014;8.352;2023-06-05T00:08:35;4.35;;;1.00;;
28760;SDS011;15917;50.014;8.352;2023-06-05T00:11:01;2.03;;;1.10;;
28760;SDS011;15917;50.014;8.352;2023-06-05T00:13:27;3.35;;;1.33;;
28760;SDS011;15917;50.014;8.352;2023-06-05T00:15:52;4.88;;;1.08;;
28760;SDS011;15917;50.014;8.352;2023-06-05T00:18:18;2.05;;;1.13;;
28760;SDS011;15917;50.014;8.352;2023-06-05T00:20:44;1.55;;;1.08;;
28760;SDS011;15917;50.014;8.352;2023-06-05T00:23:10;1.92;;;0.90;;
28760;SDS011;15917;50.014;8.352;2023-06-05T00:25:38;1.42;;;1.08;;
28760;SDS011;15917;50.014;8.352;2023-06-05T00:28:04;2.00;;;0.75;;
28760;SDS011;15917;50.014;8.352;2023-06-05T00:30:30;3.00;;;1.13;;
28760;SDS011;15917;50.014;8.352;2023-06-05T00:32:56;5.13;;;1.20;;
28760;SDS011;15917;50.014;8.352;2023-06-05T00:35:22;1.67;;;0.93;;
28760;SDS011;15917;50.014;8.352;2023-06-05T00:37:48;2.55;;;1.02;;
28760;SDS011;15917;50.014;8.352;2023-06-05T00:40:13;6.15;;;1.20;;
28760;SDS011;15917;50.014;8.352;2023-06-05T00:42:39;2.40;;;1.08;;
28760;SDS011;15917;50.014;8.352;2023-06-05T00:45:06;2.53;;;1.10;;
28760;SDS011;15917;50.014;8.352;2023-06-05T00:47:32;4.55;;;1.30;;
28760;SDS011;15917;50.014;8.352;2023-06-05T00:49:58;2.63;;;1.00;;
28760;SDS011;15917;50.014;8.352;2023-06-05T00:52:24;2.63;;;1.20;;
28760;SDS011;15917;50.014;8.352;2023-06-05T00:54:51;3.17;;;1.00;;
28760;SDS011;15917;50.014;8.352;2023-06-05T00:57:17;3.40;;;1.10;;
28760;SDS011;15917;50.014;8.352;2023-06-05T00:59:43;5.70;;;1.05;;
28760;SDS011;15917;50.014;8.352;2023-06-05T01:02:11;7.22;;;1.10;;
28760;SDS011;15917;50.014;8.352;2023-06-05T01:04:40;1.70;;;0.90;;
28760;SDS011;15917;50.014;8.352;2023-06-05T01:07:11;2.20;;;1.15;;
28760;SDS011;15917;50.014;8.352;2023-06-05T01:09:41;3.13;;;1.45;;
28760;SDS011;15917;50.014;8.352;2023-06-05T01:12:14;3.83;;;1.10;;
28760;SDS011;15917;50.014;8.352;2023-06-05T01:14:48;4.13;;;1.23;;
28760;SDS011;15917;50.014;8.352;2023-06-05T01:17:14;2.40;;;1.25;;
28760;SDS011;15917;50.014;8.352;2023-06-05T01:19:44;6.45;;;1.08;;
28760;SDS011;15917;50.014;8.352;2023-06-05T01:22:10;2.85;;;1.10;;
28760;SDS011;15917;50.014;8.352;2023-06-05T01:24:37;4.43;;;1.08;;
28760;SDS011;15917;50.014;8.352;2023-06-05T01:27:15;2.70;;;1.13;;
28760;SDS011;15917;50.014;8.352;2023-06-05T01:32:40;1.67;;;0.90;;
28760;SDS011;15917;50.014;8.352;2023-06-05T01:35:10;3.17;;;1.30;;
28760;SDS011;15917;50.014;8.352;2023-06-05T01:37:42;2.30;;;1.23;;
28760;SDS011;15917;50.014;8.352;2023-06-05T01:40:12;4.60;;;1.05;;
28760;SDS011;15917;50.014;8.352;2023-06-05T01:42:40;3.97;;;1.08;;
28760;SDS011;15917;50.014;8.352;2023-06-05T01:45:07;2.28;;;1.27;;
28760;SDS011;15917;50.014;8.352;2023-06-05T01:47:38;7.82;;;1.77;;
28760;SDS011;15917;50.014;8.352;2023-06-05T01:50:06;2.33;;;1.30;;
28760;SDS011;15917;50.014;8.352;2023-06-05T01:52:33;1.95;;;1.23;;
28760;SDS011;15917;50.014;8.352;2023-06-05T01:55:00;6.28;;;1.33;;
28760;SDS011;15917;50.014;8.352;2023-06-05T01:57:30;2.47;;;1.42;;
28760;SDS011;15917;50.014;8.352;2023-06-05T01:59:59;10.23;;;1.33;;
28760;SDS011;15917;50.014;8.352;2023-06-05T02:02:26;3.50;;;1.23;;
28760;SDS011;15917;50.014;8.352;2023-06-05T02:04:55;2.53;;;1.30;;
28760;SDS011;15917;50.014;8.352;2023-06-05T02:07:24;3.08;;;1.38;;
28760;SDS011;15917;50.014;8.352;2023-06-05T02:09:50;3.30;;;1.25;;
28760;SDS011;15917;50.014;8.352;2023-06-05T02:12:15;2.72;;;1.15;;
28760;SDS011;15917;50.014;8.352;2023-06-05T02:14:41;4.78;;;1.45;;
28760;SDS011;15917;50.014;8.352;2023-06-05T02:17:12;4.53;;;1.40;;
28760;SDS011;15917;50.014;8.352;2023-06-05T02:19:39;3.90;;;1.05;;
28760;SDS011;15917;50.014;8.352;2023-06-05T02:22:05;1.40;;;0.90;;
28760;SDS011;15917;50.014;8.352;2023-06-05T02:24:31;3.33;;;1.20;;
28760;SDS011;15917;50.014;8.352;2023-06-05T02:26:57;1.40;;;1.08;;
28760;SDS011;15917;50.014;8.352;2023-06-05T02:29:22;2.58;;;1.23;;
28760;SDS011;15917;50.014;8.352;2023-06-05T02:31:48;4.00;;;1.20;;
28760;SDS011;15917;50.014;8.352;2023-06-05T02:34:14;1.58;;;0.90;;
28760;SDS011;15917;50.014;8.352;2023-06-05T02:36:42;2.63;;;1.30;;
28760;SDS011;15917;50.014;8.352;2023-06-05T02:39:10;3.85;;;1.20;;
28760;SDS011;15917;50.014;8.352;2023-06-05T02:41:37;1.98;;;1.02;;
28760;SDS011;15917;50.014;8.352;2023-06-05T02:44:03;3.28;;;1.08;;
28760;SDS011;15917;50.014;8.352;2023-06-05T02:46:29;1.77;;;0.98;;
28760;SDS011;15917;50.014;8.352;2023-06-05T02:48:54;1.92;;;1.25;;
28760;SDS011;15917;50.014;8.352;2023-06-05T02:51:20;2.28;;;1.25;;
28760;SDS011;15917;50.014;8.352;2023-06-05T02:53:47;1.75;;;1.13;;
28760;SDS011;15917;50.014;8.352;2023-06-05T02:56:15;5.38;;;1.20;;
28760;SDS011;15917;50.014;8.352;2023-06-05T02:58:41;3.38;;;1.27;;
28760;SDS011;15917;50.014;8.352;2023-06-05T03:01:09;3.30;;;1.20;;
28760;SDS011;15917;50.014;8.352;2023-06-05T03:03:41;5.95;;;1.42;;
28760;SDS011;15917;50.014;8.352;2023-06-05T03:06:07;4.68;;;1.50;;
28760;SDS011;15917;50.014;8.352;2023-06-05T03:08:37;9.35;;;1.40;;
28760;SDS011;15917;50.014;8.352;2023-06-05T03:11:06;9.27;;;1.20;;
28760;SDS011;15917;50.014;8.352;2023-06-05T03:13:32;3.60;;;1.30;;
28760;SDS011;15917;50.014;8.352;2023-06-05T03:15:59;5.65;;;1.38;;
28760;SDS011;15917;50.014;8.352;2023-06-05T03:18:31;3.13;;;1.40;;
28760;SDS011;15917;50.014;8.352;2023-06-05T03:20:59;6.60;;;1.35;;
28760;SDS011;15917;50.014;8.352;2023-06-05T03:23:26;18.17;;;1.55;;
28760;SDS011;15917;50.014;8.352;2023-06-05T03:25:53;10.57;;;1.40;;
28760;SDS011;15917;50.014;8.352;2023-06-05T03:28:21;7.22;;;1.50;;
28760;SDS011;15917;50.014;8.352;2023-06-05T03:30:48;12.57;;;1.98;;
28760;SDS011;15917;50.014;8.352;2023-06-05T03:33:15;9.48;;;1.38;;
28760;SDS011;15917;50.014;8.352;2023-06-05T03:35:45;6.25;;;1.52;;
28760;SDS011;15917;50.014;8.352;2023-06-05T03:38:11;5.70;;;1.52;;
28760;SDS011;15917;50.014;8.352;2023-06-05T03:40:38;5.60;;;1.77;;
28760;SDS011;15917;50.014;8.352;2023-06-05T03:43:09;1.63;;;1.00;;
28760;SDS011;15917;50.014;8.352;2023-06-05T03:45:37;9.90;;;2.00;;
28760;SDS011;15917;50.014;8.352;2023-06-05T03:48:07;9.20;;;1.30;;
28760;SDS011;15917;50.014;8.352;2023-06-05T03:50:36;4.95;;;1.20;;
28760;SDS011;15917;50.014;8.352;2023-06-05T03:53:03;5.07;;;1.40;;
28760;SDS011;15917;50.014;8.352;2023-06-05T03:55:31;2.60;;;1.35;;
28760;SDS011;15917;50.014;8.352;2023-06-05T03:58:11;3.03;;;1.58;;
28760;SDS011;15917;50.014;8.352;2023-06-05T04:00:44;2.35;;;1.40;;
28760;SDS011;15917;50.014;8.352;2023-06-05T04:03:12;6.00;;;1.67;;
28760;SDS011;15917;50.014;8.352;2023-06-05T04:05:38;8.27;;;1.33;;
28760;SDS011;15917;50.014;8.352;2023-06-05T04:08:05;8.70;;;1.40;;
28760;SDS011;15917;50.014;8.352;2023-06-05T04:10:32;9.75;;;2.15;;
28760;SDS011;15917;50.014;8.352;2023-06-05T04:12:58;23.30;;;2.33;;
28760;SDS011;15917;50.014;8.352;2023-06-05T04:15:24;10.45;;;1.95;;
28760;SDS011;15917;50.014;8.352;2023-06-05T04:17:51;4.18;;;1.88;;
28760;SDS011;15917;50.014;8.352;2023-06-05T04:20:17;9.88;;;1.90;;
28760;SDS011;15917;50.014;8.352;2023-06-05T04:22:44;17.77;;;1.77;;
28760;SDS011;15917;50.014;8.352;2023-06-05T04:25:14;8.93;;;2.35;;
28760;SDS011;15917;50.014;8.352;2023-06-05T04:27:41;5.82;;;1.80;;
28760;SDS011;15917;50.014;8.352;2023-06-05T04:32:36;6.25;;;1.40;;
28760;SDS011;15917;50.014;8.352;2023-06-05T04:35:04;4.32;;;1.40;;
28760;SDS011;15917;50.014;8.352;2023-06-05T04:37:37;4.68;;;1.38;;
28760;SDS011;15917;50.014;8.352;2023-06-05T04:40:04;3.85;;;1.60;;
28760;SDS011;15917;50.014;8.352;2023-06-05T04:42:32;5.68;;;1.67;;
28760;SDS011;15917;50.014;8.352;2023-06-05T04:44:59;4.90;;;1.40;;
28760;SDS011;15917;50.014;8.352;2023-06-05T04:47:27;4.93;;;1.25;;
28760;SDS011;15917;50.014;8.352;2023-06-05T04:49:53;4.05;;;1.63;;
28760;SDS011;15917;50.014;8.352;2023-06-05T04:52:21;4.82;;;1.42;;
28760;SDS011;15917;50.014;8.352;2023-06-05T04:57:15;3.38;;;1.50;;
28760;SDS011;15917;50.014;8.352;2023-06-05T04:59:43;7.07;;;1.60;;
28760;SDS011;15917;50.014;8.352;2023-06-05T05:02:10;9.98;;;1.70;;
28760;SDS011;15917;50.014;8.352;2023-06-05T05:04:37;17.60;;;1.98;;
28760;SDS011;15917;50.014;8.352;2023-06-05T05:07:03;18.25;;;1.85;;
28760;SDS011;15917;50.014;8.352;2023-06-05T05:09:32;11.25;;;2.15;;
28760;SDS011;15917;50.014;8.352;2023-06-05T05:11:59;7.03;;;1.48;;
28760;SDS011;15917;50.014;8.352;2023-06-05T05:14:25;9.57;;;1.60;;
28760;SDS011;15917;50.014;8.352;2023-06-05T05:16:52;12.07;;;1.98;;
28760;SDS011;15917;50.014;8.352;2023-06-05T05:19:18;13.07;;;2.00;;
28760;SDS011;15917;50.014;8.352;2023-06-05T05:21:45;6.03;;;1.42;;
28760;SDS011;15917;50.014;8.352;2023-06-05T05:24:12;10.98;;;1.88;;
28760;SDS011;15917;50.014;8.352;2023-06-05T05:26:37;10.65;;;1.48;;
28760;SDS011;15917;50.014;8.352;2023-06-05T05:29:05;4.72;;;1.48;;
28760;SDS011;15917;50.014;8.352;2023-06-05T05:31:32;12.02;;;1.88;;
28760;SDS011;15917;50.014;8.352;2023-06-05T05:33:58;9.00;;;1.73;;
28760;SDS011;15917;50.014;8.352;2023-06-05T05:36:24;19.80;;;1.70;;
28760;SDS011;15917;50.014;8.352;2023-06-05T05:38:51;8.80;;;1.88;;
28760;SDS011;15917;50.014;8.352;2023-06-05T05:41:17;6.30;;;1.48;;
28760;SDS011;15917;50.014;8.352;2023-06-05T05:43:43;11.13;;;2.03;;
28760;SDS011;15917;50.014;8.352;2023-06-05T05:46:09;8.27;;;2.03;;
28760;SDS011;15917;50.014;8.352;2023-06-05T05:48:35;8.27;;;1.80;;
28760;SDS011;15917;50.014;8.352;2023-06-05T05:51:01;6.20;;;1.63;;
28760;SDS011;15917;50.014;8.352;2023-06-05T05:53:27;14.68;;;1.98;;
28760;SDS011;15917;50.014;8.352;2023-06-05T05:55:52;12.90;;;2.40;;
28760;SDS011;15917;50.014;8.352;2023-06-05T05:58:18;20.10;;;2.13;;
28760;SDS011;15917;50.014;8.352;2023-06-05T06:00:44;7.90;;;2.03;;
28760;SDS011;15917;50.014;8.352;2023-06-05T06:03:10;15.18;;;1.70;;
28760;SDS011;15917;50.014;8.352;2023-06-05T06:05:36;9.75;;;1.88;;
28760;SDS011;15917;50.014;8.352;2023-06-05T06:08:02;10.40;;;2.50;;
28760;SDS011;15917;50.014;8.352;2023-06-05T06:10:28;16.70;;;1.60;;
28760;SDS011;15917;50.014;8.352;2023-06-05T06:12:55;12.27;;;1.90;;
28760;SDS011;15917;50.014;8.352;2023-06-05T06:15:22;9.45;;;1.40;;
28760;SDS011;15917;50.014;8.352;2023-06-05T06:17:47;7.05;;;1.30;;
28760;SDS011;15917;50.014;8.352;2023-06-05T06:20:13;13.50;;;1.80;;
28760;SDS011;15917;50.014;8.352;2023-06-05T06:22:39;20.13;;;1.88;;
28760;SDS011;15917;50.014;8.352;2023-06-05T06:25:05;17.38;;;1.80;;
28760;SDS011;15917;50.014;8.352;2023-06-05T06:27:32;8.73;;;1.48;;
28760;SDS011;15917;50.014;8.352;2023-06-05T06:29:58;6.05;;;1.25;;
28760;SDS011;15917;50.014;8.352;2023-06-05T06:32:24;8.82;;;2.47;;
28760;SDS011;15917;50.014;8.352;2023-06-05T06:34:52;13.05;;;1.92;;
28760;SDS011;15917;50.014;8.352;2023-06-05T06:37:19;7.43;;;1.90;;
28760;SDS011;15917;50.014;8.352;2023-06-05T06:39:45;12.02;;;1.50;;
28760;SDS011;15917;50.014;8.352;2023-06-05T06:42:11;9.38;;;1.63;;
28760;SDS011;15917;50.014;8.352;2023-06-05T06:44:40;7.40;;;1.95;;
28760;SDS011;15917;50.014;8.352;2023-06-05T06:47:06;3.80;;;1.23;;
28760;SDS011;15917;50.014;8.352;2023-06-05T06:49:36;2.85;;;1.23;;
28760;SDS011;15917;50.014;8.352;2023-06-05T06:52:01;2.72;;;1.30;;
28760;SDS011;15917;50.014;8.352;2023-06-05T06:54:27;3.72;;;1.30;;
28760;SDS011;15917;50.014;8.352;2023-06-05T06:56:56;10.30;;;1.27;;
28760;SDS011;15917;50.014;8.352;2023-06-05T06:59:23;6.97;;;1.63;;
28760;SDS011;15917;50.014;8.352;2023-06-05T07:02:07;6.03;;;1.92;;
28760;SDS011;15917;50.014;8.352;2023-06-05T07:04:33;5.82;;;1.60;;
28760;SDS011;15917;50.014;8.352;2023-06-05T07:06:59;6.28;;;1.63;;
28760;SDS011;15917;50.014;8.352;2023-06-05T07:09:25;5.97;;;1.73;;
28760;SDS011;15917;50.014;8.352;2023-06-05T07:11:51;6.63;;;1.52;;
28760;SDS011;15917;50.014;8.352;2023-06-05T07:14:18;2.92;;;1.30;;
28760;SDS011;15917;50.014;8.352;2023-06-05T07:16:44;11.73;;;1.40;;
28760;SDS011;15917;50.014;8.352;2023-06-05T07:19:09;5.65;;;1.40;;
28760;SDS011;15917;50.014;8.352;2023-06-05T07:21:35;9.65;;;1.58;;
28760;SDS011;15917;50.014;8.352;2023-06-05T07:24:03;4.63;;;1.42;;
28760;SDS011;15917;50.014;8.352;2023-06-05T07:26:29;5.15;;;1.50;;
28760;SDS011;15917;50.014;8.352;2023-06-05T07:28:55;4.53;;;1.40;;
28760;SDS011;15917;50.014;8.352;2023-06-05T07:31:21;5.32;;;1.50;;
28760;SDS011;15917;50.014;8.352;2023-06-05T07:33:46;10.23;;;1.92;;
28760;SDS011;15917;50.014;8.352;2023-06-05T07:36:13;6.43;;;1.65;;
28760;SDS011;15917;50.014;8.352;2023-06-05T07:38:39;4.97;;;1.43;;
28760;SDS011;15917;50.014;8.352;2023-06-05T07:41:06;5.30;;;1.55;;
28760;SDS011;15917;50.014;8.352;2023-06-05T07:43:33;5.70;;;1.40;;
28760;SDS011;15917;50.014;8.352;2023-06-05T07:45:59;5.30;;;1.48;;
28760;SDS011;15917;50.014;8.352;2023-06-05T07:48:25;3.13;;;1.35;;
28760;SDS011;15917;50.014;8.352;2023-06-05T07:50:51;3.83;;;1.60;;
28760;SDS011;15917;50.014;8.352;2023-06-05T07:53:16;3.65;;;1.33;;
28760;SDS011;15917;50.014;8.352;2023-06-05T07:55:42;5.78;;;1.55;;
28760;SDS011;15917;50.014;8.352;2023-06-05T07:58:08;9.20;;;1.38;;
28760;SDS011;15917;50.014;8.352;2023-06-05T08:00:34;2.90;;;1.33;;
28760;SDS011;15917;50.014;8.352;2023-06-05T08:02:59;7.28;;;1.70;;
28760;SDS011;15917;50.014;8.352;2023-06-05T08:05:25;1.92;;;1.15;;
28760;SDS011;15917;50.014;8.352;2023-06-05T08:07:51;4.05;;;1.70;;
28760;SDS011;15917;50.014;8.352;2023-06-05T08:10:16;3.58;;;1.33;;
28760;SDS011;15917;50.014;8.352;2023-06-05T08:12:42;3.70;;;1.30;;
28760;SDS011;15917;50.014;8.352;2023-06-05T08:15:07;7.10;;;2.40;;
28760;SDS011;15917;50.014;8.352;2023-06-05T08:17:33;3.83;;;1.50;;
28760;SDS011;15917;50.014;8.352;2023-06-05T08:19:59;3.22;;;1.48;;
28760;SDS011;15917;50.014;8.352;2023-06-05T08:22:25;3.80;;;1.42;;
28760;SDS011;15917;50.014;8.352;2023-06-05T08:24:50;2.83;;;1.80;;
28760;SDS011;15917;50.014;8.352;2023-06-05T08:27:18;3.28;;;1.70;;
28760;SDS011;15917;50.014;8.352;2023-06-05T08:29:44;3.80;;;1.40;;
28760;SDS011;15917;50.014;8.352;2023-06-05T08:32:10;6.10;;;1.42;;
28760;SDS011;15917;50.014;8.352;2023-06-05T08:34:35;6.43;;;1.55;;
28760;SDS011;15917;50.014;8.352;2023-06-05T08:37:01;2.67;;;1.52;;
28760;SDS011;15917;50.014;8.352;2023-06-05T08:39:27;6.53;;;1.27;;
28760;SDS011;15917;50.014;8.352;2023-06-05T08:41:57;4.47;;;1.45;;
28760;SDS011;15917;50.014;8.352;2023-06-05T08:44:28;6.20;;;1.52;;
28760;SDS011;15917;50.014;8.352;2023-06-05T08:47:01;2.63;;;1.25;;
28760;SDS011;15917;50.014;8.352;2023-06-05T08:49:28;4.30;;;1.40;;
28760;SDS011;15917;50.014;8.352;2023-06-05T08:51:56;3.70;;;1.42;;
28760;SDS011;15917;50.014;8.352;2023-06-05T08:54:34;4.60;;;1.63;;
28760;SDS011;15917;50.014;8.352;2023-06-05T08:57:08;4.65;;;1.48;;
28760;SDS011;15917;50.014;8.352;2023-06-05T08:59:34;2.95;;;1.67;;
28760;SDS011;15917;50.014;8.352;2023-06-05T09:02:00;9.02;;;2.10;;
28760;SDS011;15917;50.014;8.352;2023-06-05T09:04:26;4.50;;;1.58;;
28760;SDS011;15917;50.014;8.352;2023-06-05T09:06:55;5.55;;;1.70;;
28760;SDS011;15917;50.014;8.352;2023-06-05T09:09:21;10.77;;;1.40;;
28760;SDS011;15917;50.014;8.352;2023-06-05T09:11:47;6.03;;;2.28;;
28760;SDS011;15917;50.014;8.352;2023-06-05T09:14:26;5.80;;;1.77;;
28760;SDS011;15917;50.014;8.352;2023-06-05T09:16:52;5.40;;;1.80;;
28760;SDS011;15917;50.014;8.352;2023-06-05T09:19:17;8.93;;;1.95;;
28760;SDS011;15917;50.014;8.352;2023-06-05T09:21:54;5.80;;;1.80;;
28760;SDS011;15917;50.014;8.352;2023-06-05T09:24:23;5.22;;;2.20;;
28760;SDS011;15917;50.014;8.352;2023-06-05T09:29:25;6.20;;;1.65;;
28760;SDS011;15917;50.014;8.352;2023-06-05T09:31:52;5.03;;;1.98;;
28760;SDS011;15917;50.014;8.352;2023-06-05T09:34:20;10.00;;;2.03;;
28760;SDS011;15917;50.014;8.352;2023-06-05T09:36:47;6.20;;;1.60;;
28760;SDS011;15917;50.014;8.352;2023-06-05T09:39:16;5.07;;;1.75;;
28760;SDS011;15917;50.014;8.352;2023-06-05T09:41:42;4.90;;;1.77;;
28760;SDS011;15917;50.014;8.352;2023-06-05T09:44:11;11.10;;;2.42;;
28760;SDS011;15917;50.014;8.352;2023-06-05T09:46:49;8.32;;;1.80;;
28760;SDS011;15917;50.014;8.352;2023-06-05T09:49:17;5.57;;;2.10;;
28760;SDS011;15917;50.014;8.352;2023-06-05T09:51:44;10.93;;;4.28;;
28760;SDS011;15917;50.014;8.352;2023-06-05T09:54:11;15.95;;;3.53;;
28760;SDS011;15917;50.014;8.352;2023-06-05T09:56:37;10.82;;;3.58;;
28760;SDS011;15917;50.014;8.352;2023-06-05T09:59:08;16.85;;;6.55;;
28760;SDS011;15917;50.014;8.352;2023-06-05T10:01:37;8.57;;;2.55;;
28760;SDS011;15917;50.014;8.352;2023-06-05T10:04:06;18.55;;;6.38;;
28760;SDS011;15917;50.014;8.352;2023-06-05T10:06:33;10.90;;;4.43;;
28760;SDS011;15917;50.014;8.352;2023-06-05T10:09:02;12.02;;;3.85;;
28760;SDS011;15917;50.014;8.352;2023-06-05T10:11:28;19.33;;;4.03;;
28760;SDS011;15917;50.014;8.352;2023-06-05T10:13:55;6.65;;;2.10;;
28760;SDS011;15917;50.014;8.352;2023-06-05T10:16:25;7.85;;;2.13;;
28760;SDS011;15917;50.014;8.352;2023-06-05T10:18:52;18.00;;;2.80;;
28760;SDS011;15917;50.014;8.352;2023-06-05T10:21:21;6.05;;;1.83;;
28760;SDS011;15917;50.014;8.352;2023-06-05T10:23:50;15.75;;;4.75;;
28760;SDS011;15917;50.014;8.352;2023-06-05T10:26:48;11.38;;;3.28;;
28760;SDS011;15917;50.014;8.352;2023-06-05T10:35:18;4.07;;;1.98;;
28760;SDS011;15917;50.014;8.352;2023-06-05T10:40:42;9.23;;;2.13;;
28760;SDS011;15917;50.014;8.352;2023-06-05T10:45:56;7.50;;;2.13;;
28760;SDS011;15917;50.014;8.352;2023-06-05T10:54:12;4.65;;;1.52;;
28760;SDS011;15917;50.014;8.352;2023-06-05T10:59:28;5.13;;;1.45;;
28760;SDS011;15917;50.014;8.352;2023-06-05T11:17:33;6.15;;;1.98;;
28760;SDS011;15917;50.014;8.352;2023-06-05T11:20:03;3.85;;;1.63;;
28760;SDS011;15917;50.014;8.352;2023-06-05T11:27:58;6.65;;;1.60;;
28760;SDS011;15917;50.014;8.352;2023-06-05T11:30:29;3.20;;;1.55;;
28760;SDS011;15917;50.014;8.352;2023-06-05T11:33:32;6.18;;;1.75;;
28760;SDS011;15917;50.014;8.352;2023-06-05T11:35:58;3.25;;;2.50;;
28760;SDS011;15917;50.014;8.352;2023-06-05T11:38:25;6.75;;;2.00;;
28760;SDS011;15917;50.014;8.352;2023-06-05T11:40:51;5.43;;;1.77;;
28760;SDS011;15917;50.014;8.352;2023-06-05T11:43:17;2.80;;;1.60;;
28760;SDS011;15917;50.014;8.352;2023-06-05T11:45:53;2.08;;;1.40;;
28760;SDS011;15917;50.014;8.352;2023-06-05T11:48:19;6.78;;;1.60;;
28760;SDS011;15917;50.014;8.352;2023-06-05T11:53:20;6.57;;;1.98;;
28760;SDS011;15917;50.014;8.352;2023-06-05T11:55:46;8.25;;;1.80;;
28760;SDS011;15917;50.014;8.352;2023-06-05T11:58:24;2.65;;;1.58;;
28760;SDS011;15917;50.014;8.352;2023-06-05T12:01:04;3.88;;;1.90;;
28760;SDS011;15917;50.014;8.352;2023-06-05T12:03:32;3.72;;;1.80;;
28760;SDS011;15917;50.014;8.352;2023-06-05T12:06:00;4.38;;;1.50;;
28760;SDS011;15917;50.014;8.352;2023-06-05T12:08:28;4.18;;;1.60;;
28760;SDS011;15917;50.014;8.352;2023-06-05T12:10:57;4.95;;;1.77;;
28760;SDS011;15917;50.014;8.352;2023-06-05T12:13:43;6.47;;;1.73;;
28760;SDS011;15917;50.014;8.352;2023-06-05T12:16:20;3.00;;;1.60;;
28760;SDS011;15917;50.014;8.352;2023-06-05T12:18:56;2.77;;;1.60;;
28760;SDS011;15917;50.014;8.352;2023-06-05T12:21:23;2.58;;;1.60;;
28760;SDS011;15917;50.014;8.352;2023-06-05T12:26:16;5.80;;;1.75;;
28760;SDS011;15917;50.014;8.352;2023-06-05T12:28:42;5.97;;;1.50;;
28760;SDS011;15917;50.014;8.352;2023-06-05T12:31:10;6.07;;;1.90;;
28760;SDS011;15917;50.014;8.352;2023-06-05T12:33:48;3.17;;;1.50;;
28760;SDS011;15917;50.014;8.352;2023-06-05T12:38:41;3.00;;;1.80;;
28760;SDS011;15917;50.014;8.352;2023-06-05T12:41:07;4.90;;;1.60;;
28760;SDS011;15917;50.014;8.352;2023-06-05T12:43:34;3.97;;;1.65;;
28760;SDS011;15917;50.014;8.352;2023-06-05T12:46:00;4.20;;;1.77;;
28760;SDS011;15917;50.014;8.352;2023-06-05T12:48:25;11.00;;;2.00;;
28760;SDS011;15917;50.014;8.352;2023-06-05T12:50:51;7.57;;;2.13;;
28760;SDS011;15917;50.014;8.352;2023-06-05T12:53:18;5.80;;;1.70;;
28760;SDS011;15917;50.014;8.352;2023-06-05T12:55:44;2.45;;;1.38;;
28760;SDS011;15917;50.014;8.352;2023-06-05T12:58:09;4.53;;;1.63;;
28760;SDS011;15917;50.014;8.352;2023-06-05T13:00:35;5.88;;;1.70;;
28760;SDS011;15917;50.014;8.352;2023-06-05T13:03:01;6.90;;;1.73;;
28760;SDS011;15917;50.014;8.352;2023-06-05T13:05:28;3.97;;;1.70;;
28760;SDS011;15917;50.014;8.352;2023-06-05T13:07:56;6.43;;;1.80;;
28760;SDS011;15917;50.014;8.352;2023-06-05T13:10:22;3.60;;;1.73;;
28760;SDS011;15917;50.014;8.352;2023-06-05T13:12:48;5.57;;;1.73;;
28760;SDS011;15917;50.014;8.352;2023-06-05T13:15:13;2.47;;;1.65;;
28760;SDS011;15917;50.014;8.352;2023-06-05T13:17:39;2.33;;;1.50;;
28760;SDS011;15917;50.014;8.352;2023-06-05T13:20:05;2.83;;;1.80;;
28760;SDS011;15917;50.014;8.352;2023-06-05T13:22:39;4.70;;;1.80;;
28760;SDS011;15917;50.014;8.352;2023-06-05T13:25:05;2.23;;;1.70;;
28760;SDS011;15917;50.014;8.352;2023-06-05T13:27:33;8.50;;;1.85;;
28760;SDS011;15917;50.014;8.352;2023-06-05T13:29:59;8.25;;;1.77;;
28760;SDS011;15917;50.014;8.352;2023-06-05T13:32:25;8.10;;;2.05;;
28760;SDS011;15917;50.014;8.352;2023-06-05T13:34:50;2.83;;;1.60;;
28760;SDS011;15917;50.014;8.352;2023-06-05T13:37:18;2.47;;;1.60;;
28760;SDS011;15917;50.014;8.352;2023-06-05T13:39:45;2.95;;;2.10;;
28760;SDS011;15917;50.014;8.352;2023-06-05T13:42:10;7.55;;;1.67;;
28760;SDS011;15917;50.014;8.352;2023-06-05T13:44:36;4.68;;;1.77;;
28760;SDS011;15917;50.014;8.352;2023-06-05T13:47:02;4.93;;;1.58;;
28760;SDS011;15917;50.014;8.352;2023-06-05T13:49:29;2.97;;;1.90;;
28760;SDS011;15917;50.014;8.352;2023-06-05T13:51:55;4.20;;;1.40;;
28760;SDS011;15917;50.014;8.352;2023-06-05T13:54:20;4.55;;;1.50;;
28760;SDS011;15917;50.014;8.352;2023-06-05T13:56:46;3.67;;;2.08;;
28760;SDS011;15917;50.014;8.352;2023-06-05T13:59:12;5.70;;;1.90;;
28760;SDS011;15917;50.014;8.352;2023-06-05T14:01:37;4.95;;;1.60;;
28760;SDS011;15917;50.014;8.352;2023-06-05T14:04:03;5.82;;;2.08;;
28760;SDS011;15917;50.014;8.352;2023-06-05T14:06:28;2.70;;;1.60;;
28760;SDS011;15917;50.014;8.352;2023-06-05T14:08:54;3.97;;;1.75;;
28760;SDS011;15917;50.014;8.352;2023-06-05T14:11:20;5.97;;;1.77;;
28760;SDS011;15917;50.014;8.352;2023-06-05T14:13:45;10.48;;;2.17;;
28760;SDS011;15917;50.014;8.352;2023-06-05T14:16:11;2.85;;;1.88;;
28760;SDS011;15917;50.014;8.352;2023-06-05T14:18:37;4.80;;;1.95;;
28760;SDS011;15917;50.014;8.352;2023-06-05T14:21:03;6.05;;;1.63;;
28760;SDS011;15917;50.014;8.352;2023-06-05T14:23:29;4.78;;;2.40;;
28760;SDS011;15917;50.014;8.352;2023-06-05T14:25:54;7.38;;;1.70;;
28760;SDS011;15917;50.014;8.352;2023-06-05T14:28:20;4.45;;;1.92;;
28760;SDS011;15917;50.014;8.352;2023-06-05T14:30:47;10.88;;;2.17;;
28760;SDS011;15917;50.014;8.352;2023-06-05T14:33:13;3.40;;;1.85;;
28760;SDS011;15917;50.014;8.352;2023-06-05T14:35:41;4.05;;;1.60;;
28760;SDS011;15917;50.014;8.352;2023-06-05T14:38:07;3.10;;;1.77;;
28760;SDS011;15917;50.014;8.352;2023-06-05T14:40:37;3.08;;;1.70;;
28760;SDS011;15917;50.014;8.352;2023-06-05T14:43:03;4.53;;;1.75;;
28760;SDS011;15917;50.014;8.352;2023-06-05T14:45:28;4.65;;;1.50;;
28760;SDS011;15917;50.014;8.352;2023-06-05T14:47:54;3.78;;;1.80;;
28760;SDS011;15917;50.014;8.352;2023-06-05T14:50:20;2.85;;;1.80;;
28760;SDS011;15917;50.014;8.352;2023-06-05T14:52:46;3.35;;;1.63;;
28760;SDS011;15917;50.014;8.352;2023-06-05T14:55:11;5.68;;;1.67;;
28760;SDS011;15917;50.014;8.352;2023-06-05T14:57:37;4.38;;;1.65;;
28760;SDS011;15917;50.014;8.352;2023-06-05T15:00:03;7.40;;;1.77;;
28760;SDS011;15917;50.014;8.352;2023-06-05T15:02:30;4.15;;;1.75;;
28760;SDS011;15917;50.014;8.352;2023-06-05T15:04:56;5.60;;;1.83;;
28760;SDS011;15917;50.014;8.352;2023-06-05T15:07:23;4.75;;;2.10;;
28760;SDS011;15917;50.014;8.352;2023-06-05T15:09:49;8.98;;;1.85;;
28760;SDS011;15917;50.014;8.352;2023-06-05T15:12:16;3.30;;;1.80;;
28760;SDS011;15917;50.014;8.352;2023-06-05T15:14:44;4.18;;;1.75;;
28760;SDS011;15917;50.014;8.352;2023-06-05T15:17:10;5.65;;;2.00;;
28760;SDS011;15917;50.014;8.352;2023-06-05T15:19:35;3.35;;;1.67;;
28760;SDS011;15917;50.014;8.352;2023-06-05T15:22:01;3.60;;;1.73;;
28760;SDS011;15917;50.014;8.352;2023-06-05T15:24:27;8.23;;;1.77;;
28760;SDS011;15917;50.014;8.352;2023-06-05T15:26:53;1.83;;;1.63;;
28760;SDS011;15917;50.014;8.352;2023-06-05T15:29:19;5.10;;;2.00;;
28760;SDS011;15917;50.014;8.352;2023-06-05T15:31:45;4.18;;;1.75;;
28760;SDS011;15917;50.014;8.352;2023-06-05T15:34:11;3.20;;;1.60;;
28760;SDS011;15917;50.014;8.352;2023-06-05T15:36:37;4.25;;;1.92;;
28760;SDS011;15917;50.014;8.352;2023-06-05T15:39:03;2.85;;;1.60;;
28760;SDS011;15917;50.014;8.352;2023-06-05T15:41:29;4.40;;;1.77;;
28760;SDS011;15917;50.014;8.352;2023-06-05T15:43:55;5.18;;;1.90;;
28760;SDS011;15917;50.014;8.352;2023-06-05T15:46:21;4.72;;;1.90;;